createdAt,value
2023-03-23T15:58:13.246Z,1.33
2023-03-23T16:00:42.430Z,1.50
2023-03-23T16:03:15.770Z,1.00
2023-03-23T16:05:42.765Z,1.35
2023-03-23T16:08:11.762Z,1.10
2023-03-23T16:10:39.170Z,1.00
2023-03-23T16:13:07.465Z,1.17
2023-03-23T16:15:34.358Z,1.20
2023-03-23T16:18:01.344Z,1.15
2023-03-23T16:20:30.424Z,1.40
2023-03-23T16:22:57.573Z,1.13
2023-03-23T16:25:24.486Z,1.25
2023-03-23T16:27:54.486Z,1.67
2023-03-23T16:30:24.396Z,1.52
2023-03-23T16:32:53.610Z,1.30
2023-03-23T16:35:22.865Z,1.40
2023-03-23T16:38:08.112Z,1.30
2023-03-23T16:40:36.579Z,1.50
2023-03-23T16:43:09.272Z,1.40
2023-03-23T16:45:40.017Z,1.30
2023-03-23T16:48:09.519Z,1.40
2023-03-23T16:50:38.560Z,1.45
2023-03-23T16:53:08.165Z,1.40
2023-03-23T16:55:36.651Z,1.73
2023-03-23T17:00:34.507Z,1.25
2023-03-23T17:03:01.915Z,1.30
2023-03-23T17:05:29.507Z,1.42
2023-03-23T17:07:56.448Z,1.40
2023-03-23T17:10:25.736Z,1.05
2023-03-23T17:12:54.573Z,1.02
2023-03-23T17:15:21.847Z,1.42
2023-03-23T17:17:48.672Z,1.20
2023-03-23T17:20:16.093Z,1.38
2023-03-23T17:22:42.865Z,2.85
2023-03-23T17:25:10.353Z,3.38
2023-03-23T17:27:38.573Z,2.30
2023-03-23T17:30:08.181Z,3.63
2023-03-23T17:32:36.877Z,2.42
2023-03-23T17:35:05.852Z,2.22
2023-03-23T17:37:33.374Z,2.10
2023-03-23T17:40:00.434Z,1.60
2023-03-23T17:42:28.014Z,3.50
2023-03-23T17:44:54.970Z,3.03
2023-03-23T17:47:22.922Z,5.05
2023-03-23T17:49:49.636Z,18.00
2023-03-23T17:52:16.555Z,16.02
2023-03-23T17:54:43.282Z,5.78
2023-03-23T17:57:10.783Z,2.58
2023-03-23T17:59:39.049Z,2.00
2023-03-23T18:02:06.253Z,1.88
2023-03-23T18:04:33.624Z,1.80
2023-03-23T18:07:00.540Z,1.33
2023-03-23T18:09:28.225Z,1.50
2023-03-23T18:11:56.688Z,1.67
2023-03-23T18:14:23.793Z,2.25
2023-03-23T18:16:51.482Z,1.50
2023-03-23T18:19:19.286Z,1.50
2023-03-23T18:21:46.339Z,1.98
2023-03-23T18:24:13.647Z,1.55
2023-03-23T18:26:41.135Z,1.58
2023-03-23T18:29:08.549Z,1.65
2023-03-23T18:31:40.218Z,1.50
2023-03-23T18:34:08.364Z,1.40
2023-03-23T18:36:35.738Z,1.80
2023-03-23T18:39:03.910Z,1.50
2023-03-23T18:41:30.788Z,1.95
2023-03-23T18:43:57.879Z,1.75
2023-03-23T18:46:25.465Z,1.40
2023-03-23T18:48:52.864Z,1.40
2023-03-23T18:51:19.724Z,1.58
2023-03-23T18:53:46.719Z,1.55
2023-03-23T18:56:16.374Z,1.80
2023-03-23T18:58:44.923Z,1.77
2023-03-23T19:01:17.256Z,1.42
2023-03-23T19:03:45.426Z,1.50
2023-03-23T19:06:21.993Z,1.40
2023-03-23T19:08:49.879Z,1.40
2023-03-23T19:11:17.305Z,1.23
2023-03-23T19:13:57.935Z,1.40
2023-03-23T19:16:28.405Z,1.55
2023-03-23T19:18:55.491Z,1.40
2023-03-23T19:21:25.451Z,1.50
2023-03-23T19:23:54.762Z,1.70
2023-03-23T19:26:31.224Z,1.50
2023-03-23T19:31:29.461Z,1.63
2023-03-23T19:33:56.646Z,1.48
2023-03-23T19:36:24.939Z,1.25
2023-03-23T19:38:54.932Z,1.40
2023-03-23T19:41:22.407Z,1.52
2023-03-23T19:43:50.160Z,1.23
2023-03-23T19:46:17.780Z,1.43
2023-03-23T19:48:46.160Z,1.50
2023-03-23T19:51:17.432Z,2.23
2023-03-23T19:53:44.184Z,1.40
2023-03-23T19:56:14.178Z,2.17
2023-03-23T19:58:41.266Z,1.40
2023-03-23T20:01:09.593Z,1.42
2023-03-23T20:03:36.869Z,1.50
2023-03-23T20:06:07.735Z,1.55
2023-03-23T20:08:35.390Z,1.92
2023-03-23T20:11:12.424Z,1.60
2023-03-23T20:13:41.096Z,1.70
2023-03-23T20:16:09.626Z,1.45
2023-03-23T20:18:38.600Z,1.50
2023-03-23T20:21:09.742Z,1.63
2023-03-23T20:23:38.396Z,1.60
2023-03-23T20:26:17.884Z,1.98
2023-03-23T20:28:45.844Z,2.20
2023-03-23T20:31:24.598Z,1.83
2023-03-23T20:34:00.016Z,1.97
2023-03-23T20:36:36.892Z,2.40
2023-03-23T20:39:05.986Z,2.35
2023-03-23T20:41:36.056Z,2.10
2023-03-23T20:44:04.291Z,2.35
2023-03-23T20:46:31.443Z,1.70
2023-03-23T20:48:58.218Z,1.90
2023-03-23T20:51:25.813Z,2.90
2023-03-23T20:53:53.358Z,2.73
2023-03-23T20:56:21.236Z,2.20
2023-03-23T20:58:48.219Z,2.63
2023-03-23T21:01:15.325Z,3.03
2023-03-23T21:03:43.473Z,2.73
2023-03-23T21:06:11.227Z,3.20
2023-03-23T21:08:40.860Z,3.30
2023-03-23T21:11:10.548Z,2.70
2023-03-23T21:13:37.422Z,3.40
2023-03-23T21:16:05.639Z,3.20
2023-03-23T21:18:32.776Z,3.10
2023-03-23T21:21:00.475Z,3.10
2023-03-23T21:23:29.840Z,4.00
2023-03-23T21:26:06.193Z,3.10
2023-03-23T21:28:32.934Z,3.93
2023-03-23T21:31:02.312Z,4.13
2023-03-23T21:33:29.113Z,4.00
2023-03-23T21:35:56.901Z,4.43
2023-03-23T21:38:28.209Z,4.80
2023-03-23T21:40:57.635Z,4.37
2023-03-23T21:43:27.891Z,4.43
2023-03-23T21:45:59.176Z,4.70
2023-03-23T21:48:27.622Z,4.83
2023-03-23T21:50:55.855Z,4.20
2023-03-23T21:53:25.756Z,4.77
2023-03-23T21:55:52.838Z,5.73
2023-03-23T21:58:22.217Z,4.53
2023-03-23T22:00:54.087Z,5.03
2023-03-23T22:03:24.066Z,4.80
2023-03-23T22:05:55.181Z,4.23
2023-03-23T22:08:23.044Z,4.37
2023-03-23T22:11:00.377Z,4.70
2023-03-23T22:13:33.242Z,4.43
2023-03-23T22:16:02.864Z,4.80
2023-03-23T22:18:30.575Z,4.87
2023-03-23T22:20:59.163Z,5.13
2023-03-23T22:23:27.732Z,5.47
2023-03-23T22:25:56.987Z,5.47
2023-03-23T22:28:26.747Z,4.70
2023-03-23T22:30:56.045Z,4.57
2023-03-23T22:33:22.929Z,4.23
2023-03-23T22:35:50.611Z,4.27
2023-03-23T22:38:17.517Z,5.17
2023-03-23T22:40:44.471Z,4.70
2023-03-23T22:43:11.941Z,4.60
2023-03-23T22:45:38.729Z,4.17
2023-03-23T22:48:07.990Z,4.47
2023-03-23T22:50:35.243Z,5.00
2023-03-23T22:53:02.468Z,4.90
2023-03-23T22:55:29.347Z,4.00
2023-03-23T22:57:56.655Z,4.97
2023-03-23T23:00:23.932Z,4.57
2023-03-23T23:02:51.450Z,4.57
2023-03-23T23:05:18.402Z,4.37
2023-03-23T23:07:45.369Z,4.60
2023-03-23T23:10:12.387Z,4.57
2023-03-23T23:12:39.401Z,4.27
2023-03-23T23:15:07.200Z,4.63
2023-03-23T23:17:35.041Z,4.57
2023-03-23T23:20:05.737Z,4.70
2023-03-23T23:22:33.824Z,4.50
2023-03-23T23:25:01.182Z,5.20
2023-03-23T23:27:28.455Z,5.10
2023-03-23T23:29:55.901Z,5.17
2023-03-23T23:32:22.799Z,4.80
2023-03-23T23:34:49.785Z,4.87
2023-03-23T23:37:16.603Z,4.17
2023-03-23T23:39:43.764Z,4.30
2023-03-23T23:42:10.922Z,4.50
2023-03-23T23:44:39.196Z,4.23
2023-03-23T23:47:06.532Z,4.10
2023-03-23T23:49:34.345Z,5.10
2023-03-23T23:52:01.205Z,4.67
2023-03-23T23:54:30.008Z,4.67
2023-03-23T23:56:58.799Z,4.00
2023-03-23T23:59:26.902Z,4.53
